City Of Vicksburg — WDC2660 — position and weather

sailwx.info

Track history (hours):
 
Tides and Currents Weather Stations Pressure Air Temp Water Temp Dewpoint Dewpoint Depression Visibility Wind Speed Wind Dir Waves Ship Positions

City Of Vicksburg

Owner: Kirby Inland Marine LP, Houston, TX. More information available from US FCC via Universal Licensing System and Coast Guard Vessel Documentation Center.

Last reported at 2018-Jan-18 18:16 UTC. Time now 2018-Jan-22 16:08 UTC.
Position N 32°40' W 091°07'.

Length 349 m; draft 3 m.

Type: . MMSI: 366996120.

Date/timePositionNaut miles runAvg speedWind from/ knotsBaromVisibWave heightAir tempDewpointWater temp
2018-Jan-18 18:16N 32°40' W 091°07'1 4.3
2018-Jan-18 18:00N 32°40' W 091°08'1 2.9
2018-Jan-18 17:29N 32°38' W 091°09'0 0.1
2018-Jan-18 17:00N 32°38' W 091°09'1 2.0
2018-Jan-18 16:30N 32°37' W 091°09'2 4.7
2018-Jan-18 16:00N 32°35' W 091°08'2 4.7
2018-Jan-18 15:30N 32°33' W 091°06'2 4.9
2018-Jan-18 15:00N 32°31' W 091°06'3 5.4
2018-Jan-18 14:30N 32°28' W 091°06'3 5.3
2018-Jan-18 14:00N 32°27' W 091°04'2 5.0
2018-Jan-18 13:30N 32°26' W 091°01'2 4.2
2018-Jan-18 13:00N 32°24' W 090°59'2 3.8
2018-Jan-18 12:30N 32°23' W 091°00'2 3.2
2018-Jan-18 12:00N 32°21' W 090°59'1 2.7
2018-Jan-18 11:30N 32°21' W 090°58'0 0.0
2018-Jan-18 11:00N 32°21' W 090°58'0 0.0
2018-Jan-18 10:30N 32°21' W 090°58'0 0.0
2018-Jan-18 10:00N 32°21' W 090°58'0 0.0
2018-Jan-18 09:30N 32°21' W 090°58'0 0.0
2018-Jan-18 09:00N 32°21' W 090°58'0 0.0
2018-Jan-18 08:30N 32°21' W 090°58'1 1.5
2018-Jan-18 08:00N 32°21' W 090°57'2 4.9
2018-Jan-18 07:30N 32°20' W 090°54'2 4.5
2018-Jan-18 07:00N 32°18' W 090°55'3 5.2
2018-Jan-18 06:30N 32°16' W 090°57'2 4.4
2018-Jan-18 06:00N 32°15' W 090°59'2 4.9
2018-Jan-18 05:30N 32°12' W 090°59'2 4.8
2018-Jan-18 05:00N 32°10' W 091°00'2 4.7
2018-Jan-18 04:30N 32°08' W 091°01'2 4.5
2018-Jan-18 04:00N 32°08' W 091°04'2 3.3
2018-Jan-18 03:30N 32°08' W 091°05'2 3.6
2018-Jan-18 03:00N 32°06' W 091°06'4 1.6
2018-Jan-18 00:35N 32°03' W 091°03'3 5.4
2018-Jan-18 00:00N 32°00' W 091°05'0 5.3
2018-Jan-17 23:55N 31°60' W 091°05'  
Track history (hours):
 
Tides and Currents Weather Stations Pressure Air Temp Water Temp Dewpoint Dewpoint Depression Visibility Wind Speed Wind Dir Waves Ship Positions

City Of Vicksburg

Owner: Kirby Inland Marine LP, Houston, TX. More information available from US FCC via Universal Licensing System and Coast Guard Vessel Documentation Center.

Last reported at 2018-Jan-18 18:16 UTC. Time now 2018-Jan-22 16:08 UTC.
Position N 32°40' W 091°07'.

Length 349 m; draft 3 m.

Type: . MMSI: 366996120.

Date/timePositionNaut miles runAvg speedWind from/ knotsBaromVisibWave heightAir tempDewpointWater temp
2018-Jan-18 18:16N 32°40' W 091°07'1 4.3
2018-Jan-18 18:00N 32°40' W 091°08'1 2.9
2018-Jan-18 17:29N 32°38' W 091°09'0 0.1
2018-Jan-18 17:00N 32°38' W 091°09'1 2.0
2018-Jan-18 16:30N 32°37' W 091°09'2 4.7
2018-Jan-18 16:00N 32°35' W 091°08'2 4.7
2018-Jan-18 15:30N 32°33' W 091°06'2 4.9
2018-Jan-18 15:00N 32°31' W 091°06'3 5.4
2018-Jan-18 14:30N 32°28' W 091°06'3 5.3
2018-Jan-18 14:00N 32°27' W 091°04'2 5.0
2018-Jan-18 13:30N 32°26' W 091°01'2 4.2
2018-Jan-18 13:00N 32°24' W 090°59'2 3.8
2018-Jan-18 12:30N 32°23' W 091°00'2 3.2
2018-Jan-18 12:00N 32°21' W 090°59'1 2.7
2018-Jan-18 11:30N 32°21' W 090°58'0 0.0
2018-Jan-18 11:00N 32°21' W 090°58'0 0.0
2018-Jan-18 10:30N 32°21' W 090°58'0 0.0
2018-Jan-18 10:00N 32°21' W 090°58'0 0.0
2018-Jan-18 09:30N 32°21' W 090°58'0 0.0
2018-Jan-18 09:00N 32°21' W 090°58'0 0.0
2018-Jan-18 08:30N 32°21' W 090°58'1 1.5
2018-Jan-18 08:00N 32°21' W 090°57'2 4.9
2018-Jan-18 07:30N 32°20' W 090°54'2 4.5
2018-Jan-18 07:00N 32°18' W 090°55'3 5.2
2018-Jan-18 06:30N 32°16' W 090°57'2 4.4
2018-Jan-18 06:00N 32°15' W 090°59'2 4.9
2018-Jan-18 05:30N 32°12' W 090°59'2 4.8
2018-Jan-18 05:00N 32°10' W 091°00'2 4.7
2018-Jan-18 04:30N 32°08' W 091°01'2 4.5
2018-Jan-18 04:00N 32°08' W 091°04'2 3.3
2018-Jan-18 03:30N 32°08' W 091°05'2 3.6
2018-Jan-18 03:00N 32°06' W 091°06'4 1.6
2018-Jan-18 00:35N 32°03' W 091°03'3 5.4
2018-Jan-18 00:00N 32°00' W 091°05'0 5.3
2018-Jan-17 23:55N 31°60' W 091°05'  

Dump ship's entire track history